createdAt,value
2019-04-03T00:00:12.009Z,99982.70
2019-04-03T00:02:40.488Z,99979.46
2019-04-03T00:05:08.981Z,99977.50
2019-04-03T00:07:37.442Z,99985.48
2019-04-03T00:10:07.230Z,99979.40
2019-04-03T00:12:35.845Z,99975.04
2019-04-03T00:15:05.000Z,99985.81
2019-04-03T00:17:33.532Z,99983.10
2019-04-03T00:20:02.043Z,99983.70
2019-04-03T00:22:30.501Z,99984.52
2019-04-03T00:24:59.411Z,99988.42
2019-04-03T00:27:28.031Z,99983.66
2019-04-03T00:29:56.732Z,99979.19
2019-04-03T00:32:25.201Z,99987.91
2019-04-03T00:34:53.943Z,99978.98
2019-04-03T00:37:23.174Z,99991.33
2019-04-03T00:39:53.875Z,99984.55
2019-04-03T00:42:24.176Z,99986.34
2019-04-03T00:44:54.709Z,99984.47
2019-04-03T00:47:25.087Z,99980.91
2019-04-03T00:49:56.215Z,99983.27
2019-04-03T00:52:23.833Z,99976.91
2019-04-03T00:54:52.308Z,99970.94
2019-04-03T00:57:20.822Z,99978.48
2019-04-03T00:59:49.686Z,99979.31
2019-04-03T01:02:18.165Z,99982.36
2019-04-03T01:04:46.660Z,99979.65
2019-04-03T01:07:15.139Z,99983.72
2019-04-03T01:09:43.615Z,99980.28
2019-04-03T01:12:12.080Z,99981.84
2019-04-03T01:14:40.580Z,99989.23
2019-04-03T01:17:09.043Z,99984.97
2019-04-03T01:19:37.506Z,99986.84
2019-04-03T01:22:07.776Z,99985.39
2019-04-03T01:24:36.716Z,99986.70
2019-04-03T01:27:06.395Z,99985.55
2019-04-03T01:29:34.895Z,99985.27
2019-04-03T01:32:03.623Z,99984.14
2019-04-03T01:34:32.132Z,99987.55
2019-04-03T01:37:00.878Z,99980.64
2019-04-03T01:39:29.358Z,99981.98
2019-04-03T01:41:57.874Z,99985.85
2019-04-03T01:44:26.344Z,99980.92
2019-04-03T01:46:57.423Z,99980.45
2019-04-03T01:49:28.011Z,99983.69
2019-04-03T01:51:55.578Z,99983.48
2019-04-03T01:54:24.054Z,99986.05
2019-04-03T01:56:52.517Z,99979.00
2019-04-03T01:59:21.305Z,99970.98
2019-04-03T02:01:50.041Z,99978.05
2019-04-03T02:04:18.529Z,99979.21
2019-04-03T02:06:47.003Z,99983.05
2019-04-03T02:09:16.309Z,99987.06
2019-04-03T02:11:44.861Z,99987.17
2019-04-03T02:14:13.512Z,99979.84
2019-04-03T02:16:41.995Z,99983.82
2019-04-03T02:19:10.506Z,99985.34
2019-04-03T02:21:38.978Z,99985.47
2019-04-03T02:24:07.442Z,99981.00
2019-04-03T02:26:35.971Z,99977.50
2019-04-03T02:29:06.612Z,99983.38
2019-04-03T02:31:34.690Z,99981.61
2019-04-03T02:34:03.389Z,99981.41
2019-04-03T02:36:31.853Z,99981.23
2019-04-03T02:39:00.533Z,99978.52
2019-04-03T02:41:28.978Z,99976.64
2019-04-03T02:43:57.456Z,99976.08
2019-04-03T02:46:28.072Z,99977.58
2019-04-03T02:48:56.213Z,99977.26
2019-04-03T02:51:24.869Z,99982.92
2019-04-03T02:53:53.349Z,99991.57
2019-04-03T02:56:22.129Z,99988.90
2019-04-03T02:58:53.561Z,99988.48
2019-04-03T03:01:20.863Z,99989.08
2019-04-03T03:03:50.071Z,99984.40
2019-04-03T03:06:18.992Z,100000.05
2019-04-03T03:08:47.730Z,99999.44
2019-04-03T03:11:16.226Z,99994.85
2019-04-03T03:13:44.790Z,99998.82
2019-04-03T03:16:14.537Z,99990.17
2019-04-03T03:18:43.528Z,99988.17
2019-04-03T03:21:14.297Z,99983.62
2019-04-03T03:23:42.872Z,99986.61
2019-04-03T03:26:11.612Z,99990.35
2019-04-03T03:28:40.070Z,99991.24
2019-04-03T03:31:08.599Z,99989.73
2019-04-03T03:33:40.088Z,99991.20
2019-04-03T03:36:08.076Z,99991.00
2019-04-03T03:38:39.405Z,99991.98
2019-04-03T03:41:06.954Z,99997.64
2019-04-03T03:43:38.227Z,99996.46
2019-04-03T03:46:05.970Z,100002.87
2019-04-03T03:48:34.451Z,99995.95
2019-04-03T03:51:03.307Z,99990.91
2019-04-03T03:53:31.829Z,99984.08
2019-04-03T03:56:00.718Z,99978.52
2019-04-03T03:58:29.426Z,99976.73
2019-04-03T04:01:00.303Z,99978.61
2019-04-03T04:03:28.334Z,99980.91
2019-04-03T04:05:56.998Z,99972.63
2019-04-03T04:08:25.478Z,99975.58
2019-04-03T04:10:58.195Z,99970.63
2019-04-03T04:13:24.311Z,99971.88
2019-04-03T04:15:52.717Z,99973.70
2019-04-03T04:18:23.713Z,99974.13
2019-04-03T04:20:51.411Z,99974.97
2019-04-03T04:23:23.112Z,99982.45
2019-04-03T04:25:50.193Z,99976.22
2019-04-03T04:28:18.675Z,99970.77
2019-04-03T04:30:47.484Z,99974.36
2019-04-03T04:33:16.960Z,99964.69
2019-04-03T04:35:46.483Z,99962.99
2019-04-03T04:38:14.951Z,99967.76
2019-04-03T04:40:43.659Z,99961.59
2019-04-03T04:43:12.099Z,99969.52
2019-04-03T04:45:42.212Z,99978.09
2019-04-03T04:48:10.776Z,99978.61
2019-04-03T04:50:39.278Z,99978.02
2019-04-03T04:53:07.835Z,99968.84
2019-04-03T04:55:37.727Z,99974.22
2019-04-03T04:58:06.520Z,99975.81
2019-04-03T05:00:35.028Z,99971.78
2019-04-03T05:03:03.444Z,99979.59
2019-04-03T05:05:31.954Z,99975.40
2019-04-03T05:08:02.205Z,99978.82
2019-04-03T05:10:30.723Z,99980.96
2019-04-03T05:12:59.298Z,99983.29
2019-04-03T05:15:27.775Z,99992.83
2019-04-03T05:17:57.721Z,100006.41
2019-04-03T05:20:26.465Z,100008.08
2019-04-03T05:22:55.694Z,100008.70
2019-04-03T05:25:24.229Z,100007.68
2019-04-03T05:27:52.720Z,100008.11
2019-04-03T05:30:30.485Z,100004.78
2019-04-03T05:32:59.632Z,100009.89
2019-04-03T05:35:28.141Z,100006.66
2019-04-03T05:37:56.869Z,99997.45
2019-04-03T05:40:26.111Z,100001.12
2019-04-03T05:42:55.028Z,100010.20
2019-04-03T05:45:23.506Z,100008.33
2019-04-03T05:47:52.180Z,100006.64
2019-04-03T05:50:20.638Z,100008.70
2019-04-03T05:52:49.161Z,100015.34
2019-04-03T05:55:17.833Z,100015.84
2019-04-03T05:57:46.275Z,100023.00
2019-04-03T06:00:14.751Z,100023.61
2019-04-03T06:02:43.210Z,100028.33
2019-04-03T06:05:13.424Z,100028.93
2019-04-03T06:07:41.963Z,100033.37
2019-04-03T06:10:10.546Z,100033.37
2019-04-03T06:12:39.488Z,100030.23
2019-04-03T06:15:09.858Z,100030.55
2019-04-03T06:17:38.250Z,100039.97
2019-04-03T06:20:10.389Z,100036.27
2019-04-03T06:22:37.783Z,100041.64
2019-04-03T06:25:06.679Z,100038.58
2019-04-03T06:27:35.356Z,100040.34
2019-04-03T06:30:04.052Z,100037.92
2019-04-03T06:32:32.533Z,100042.59
2019-04-03T06:35:00.995Z,100047.34
2019-04-03T06:37:29.468Z,100038.47
2019-04-03T06:39:57.966Z,100035.22
2019-04-03T06:42:26.476Z,100050.33
2019-04-03T06:44:55.179Z,100040.37
2019-04-03T06:47:24.067Z,100047.36
2019-04-03T06:49:52.597Z,100045.14
2019-04-03T06:52:21.508Z,100043.70
2019-04-03T06:54:50.684Z,100046.27
2019-04-03T06:57:19.157Z,100043.80
2019-04-03T06:59:48.702Z,100048.42
2019-04-03T07:02:17.435Z,100054.45
2019-04-03T07:04:45.905Z,100055.19
2019-04-03T07:07:14.379Z,100054.75
2019-04-03T07:09:42.902Z,100058.48
2019-04-03T07:12:11.390Z,100064.86
2019-04-03T07:14:39.937Z,100064.00
2019-04-03T07:17:08.728Z,100065.07
2019-04-03T07:19:37.903Z,100064.92
2019-04-03T07:22:07.547Z,100065.13
2019-04-03T07:24:36.328Z,100058.89
2019-04-03T07:27:06.302Z,100063.66
2019-04-03T07:29:35.162Z,100069.34
2019-04-03T07:32:03.679Z,100070.75
2019-04-03T07:34:34.505Z,100076.09
2019-04-03T07:37:02.383Z,100076.59
2019-04-03T07:39:30.844Z,100077.69
2019-04-03T07:41:59.420Z,100080.20
2019-04-03T07:44:29.905Z,100088.63
2019-04-03T07:46:58.078Z,100081.87
2019-04-03T07:49:26.738Z,100086.95
2019-04-03T07:51:55.192Z,100083.83
2019-04-03T07:54:26.120Z,100093.39
2019-04-03T07:56:56.802Z,100092.03
2019-04-03T07:59:24.142Z,100104.14
2019-04-03T08:01:52.623Z,100097.51
2019-04-03T08:04:23.530Z,100105.83
2019-04-03T08:06:51.313Z,100099.62
2019-04-03T08:09:20.405Z,100100.30
2019-04-03T08:11:48.968Z,100106.27
2019-04-03T08:14:19.406Z,100104.61
2019-04-03T08:16:48.765Z,100095.21
2019-04-03T08:19:17.892Z,100098.56
2019-04-03T08:21:46.496Z,100104.61
2019-04-03T08:24:14.991Z,100095.68
2019-04-03T08:26:43.455Z,100091.88
2019-04-03T08:29:12.102Z,100096.95
2019-04-03T08:31:43.195Z,100100.59
2019-04-03T08:34:16.798Z,100101.11
2019-04-03T08:36:41.646Z,100109.28
2019-04-03T08:39:10.097Z,100103.52
2019-04-03T08:41:38.943Z,100099.38
2019-04-03T08:44:08.597Z,100106.09
2019-04-03T08:46:37.619Z,100104.87
2019-04-03T08:49:06.135Z,100099.78
2019-04-03T08:51:34.986Z,100100.17
2019-04-03T08:54:03.481Z,100102.66
2019-04-03T08:56:32.218Z,100102.45
2019-04-03T08:59:00.704Z,100103.94
2019-04-03T09:01:29.179Z,100096.09
2019-04-03T09:03:57.667Z,100094.13
2019-04-03T09:06:26.372Z,100101.39
2019-04-03T09:08:57.191Z,100095.94
2019-04-03T09:11:25.450Z,100094.66
2019-04-03T09:13:54.922Z,100094.56
2019-04-03T09:16:24.443Z,100098.19
2019-04-03T09:18:52.935Z,100092.22
2019-04-03T09:21:21.777Z,100100.98
2019-04-03T09:23:50.260Z,100102.38
2019-04-03T09:26:18.739Z,100105.56
2019-04-03T09:28:47.250Z,100109.55
2019-04-03T09:31:17.133Z,100106.38
2019-04-03T09:33:46.041Z,100111.96
2019-04-03T09:36:14.632Z,100118.66
2019-04-03T09:38:43.354Z,100127.88
2019-04-03T09:41:12.030Z,100118.73
2019-04-03T09:43:40.574Z,100125.02
2019-04-03T09:46:09.052Z,100119.55
2019-04-03T09:48:37.953Z,100120.30
2019-04-03T09:51:09.123Z,100122.42
2019-04-03T09:53:36.678Z,100120.30
2019-04-03T09:56:07.314Z,100118.11
2019-04-03T09:58:35.815Z,100124.38
2019-04-03T10:01:05.039Z,100118.55
2019-04-03T10:03:33.632Z,100120.03
2019-04-03T10:06:02.019Z,100124.22
2019-04-03T10:08:30.504Z,100115.22
2019-04-03T10:10:59.150Z,100117.55
2019-04-03T10:13:27.966Z,100115.87
2019-04-03T10:15:56.392Z,100108.47
2019-04-03T10:18:25.012Z,100110.19
2019-04-03T10:20:53.400Z,100110.86
2019-04-03T10:23:22.182Z,100107.25
2019-04-03T10:25:53.102Z,100100.29
2019-04-03T10:28:21.103Z,100110.07
2019-04-03T10:30:52.468Z,100104.55
2019-04-03T10:33:19.985Z,100097.55
2019-04-03T10:35:48.471Z,100092.04
2019-04-03T10:38:18.570Z,100092.24
2019-04-03T10:40:47.120Z,100095.42
2019-04-03T10:43:15.594Z,100094.50
2019-04-03T10:45:44.134Z,100091.48
2019-04-03T10:48:12.871Z,100088.65
2019-04-03T10:50:41.419Z,100084.93
2019-04-03T10:53:10.174Z,100081.45
2019-04-03T10:55:39.092Z,100082.83
2019-04-03T10:58:08.542Z,100093.34
2019-04-03T11:00:37.574Z,100094.79
2019-04-03T11:03:06.269Z,100094.89
2019-04-03T11:05:34.782Z,100092.22
2019-04-03T11:08:03.655Z,100080.71
2019-04-03T11:10:32.408Z,100083.83
2019-04-03T11:13:02.849Z,100087.91
2019-04-03T11:15:31.320Z,100088.00
2019-04-03T11:17:59.900Z,100083.63
2019-04-03T11:20:28.472Z,100073.48
2019-04-03T11:23:05.660Z,100066.23
2019-04-03T11:25:27.210Z,100067.36
2019-04-03T11:27:56.398Z,100055.66
2019-04-03T11:30:25.511Z,100054.77
2019-04-03T11:32:54.102Z,100050.98
2019-04-03T11:35:22.919Z,100046.02
2019-04-03T11:37:51.326Z,100052.73
2019-04-03T11:40:20.025Z,100055.05
2019-04-03T11:42:48.677Z,100045.45
2019-04-03T11:45:17.246Z,100048.25
2019-04-03T11:47:46.407Z,100049.77
2019-04-03T11:50:15.536Z,100041.21
2019-04-03T11:52:44.318Z,100030.12
2019-04-03T11:55:12.837Z,100041.21
2019-04-03T11:57:41.290Z,100038.15
2019-04-03T12:00:14.365Z,100038.15
2019-04-03T12:02:44.457Z,100041.42
2019-04-03T12:05:16.231Z,100034.63
2019-04-03T12:07:43.471Z,100034.31
2019-04-03T12:10:11.945Z,100033.19
2019-04-03T12:12:42.090Z,100037.55
2019-04-03T12:15:10.885Z,100035.75
2019-04-03T12:17:39.298Z,100035.33
2019-04-03T12:20:09.285Z,100037.27
2019-04-03T12:22:38.067Z,100034.70
2019-04-03T12:25:06.548Z,100042.31
2019-04-03T12:27:36.023Z,100025.84
2019-04-03T12:30:07.255Z,100021.23
2019-04-03T12:32:39.360Z,100027.75
2019-04-03T12:35:07.301Z,100027.83
2019-04-03T12:37:37.046Z,100025.71
2019-04-03T12:40:06.558Z,100035.67
2019-04-03T12:42:35.723Z,100039.27
2019-04-03T12:45:05.285Z,100031.62
2019-04-03T12:47:34.069Z,100024.45
2019-04-03T12:50:02.544Z,100017.16
2019-04-03T12:52:31.139Z,100012.72
2019-04-03T12:54:59.696Z,100005.02
2019-04-03T12:57:28.101Z,100002.31
2019-04-03T12:59:56.720Z,99992.59
2019-04-03T13:02:25.190Z,100001.22
2019-04-03T13:04:53.716Z,99998.80
2019-04-03T13:07:22.117Z,99995.94
2019-04-03T13:09:50.597Z,99995.04
2019-04-03T13:12:22.073Z,99984.72
2019-04-03T13:14:49.690Z,99985.39
2019-04-03T13:17:19.028Z,99987.18
2019-04-03T13:19:47.654Z,99986.56
2019-04-03T13:22:18.017Z,99981.83
2019-04-03T13:24:48.299Z,99978.89
2019-04-03T13:27:16.785Z,99971.60
2019-04-03T13:29:45.254Z,99963.47
2019-04-03T13:32:16.796Z,99955.67
2019-04-03T13:34:43.896Z,99963.91
2019-04-03T13:37:12.393Z,99953.94
2019-04-03T13:39:40.820Z,99960.55
2019-04-03T13:42:09.449Z,99954.76
2019-04-03T13:44:37.912Z,99951.95
2019-04-03T13:47:08.589Z,99953.34
2019-04-03T13:49:36.718Z,99963.13
2019-04-03T13:52:08.541Z,99958.80
2019-04-03T13:54:35.735Z,99953.42
2019-04-03T13:57:04.283Z,99962.50
2019-04-03T13:59:32.691Z,99944.61
2019-04-03T14:02:01.424Z,99945.23
2019-04-03T14:04:30.142Z,99939.66
2019-04-03T14:06:58.600Z,99935.91
2019-04-03T14:09:27.356Z,99937.77
2019-04-03T14:11:55.878Z,99934.20
2019-04-03T14:14:24.574Z,99929.34
2019-04-03T14:16:53.036Z,99927.15
2019-04-03T14:19:24.313Z,99927.64
2019-04-03T14:21:51.709Z,99926.16
2019-04-03T14:24:20.286Z,99924.29
2019-04-03T14:26:48.694Z,99914.11
2019-04-03T14:29:17.180Z,99915.41
2019-04-03T14:31:47.988Z,99911.88
2019-04-03T14:34:15.914Z,99905.75
2019-04-03T14:36:44.686Z,99903.45
2019-04-03T14:39:13.864Z,99899.20
2019-04-03T14:41:42.371Z,99892.63
2019-04-03T14:44:10.842Z,99893.94
2019-04-03T14:46:39.346Z,99892.99
2019-04-03T14:49:07.838Z,99886.42
2019-04-03T14:51:36.664Z,99894.66
2019-04-03T14:54:07.730Z,99891.50
2019-04-03T14:56:35.972Z,99901.01
2019-04-03T14:59:04.704Z,99902.89
2019-04-03T15:01:33.235Z,99901.17
2019-04-03T15:04:02.270Z,99907.45
2019-04-03T15:06:31.059Z,99914.86
2019-04-03T15:08:59.530Z,99910.70
2019-04-03T15:11:28.022Z,99911.52
2019-04-03T15:13:56.722Z,99907.31
2019-04-03T15:16:25.435Z,99910.09
2019-04-03T15:18:53.834Z,99909.89
2019-04-03T15:21:23.711Z,99906.23
2019-04-03T15:23:52.510Z,99904.19
2019-04-03T15:26:22.226Z,99899.20
2019-04-03T15:28:50.923Z,99895.00
2019-04-03T15:31:19.358Z,99886.44
2019-04-03T15:33:48.128Z,99885.77
2019-04-03T15:36:16.562Z,99879.38
2019-04-03T15:38:46.295Z,99863.81
2019-04-03T15:41:14.991Z,99867.47
2019-04-03T15:43:45.602Z,99860.67
2019-04-03T15:46:14.101Z,99861.52
2019-04-03T15:48:42.623Z,99864.70
2019-04-03T15:51:11.105Z,99860.00
2019-04-03T15:53:39.585Z,99852.73
2019-04-03T15:56:08.067Z,99850.69
2019-04-03T15:58:36.536Z,99850.20
2019-04-03T16:01:07.883Z,99847.11
2019-04-03T16:03:35.464Z,99840.45
2019-04-03T16:06:04.756Z,99832.42
2019-04-03T16:08:33.661Z,99824.33
2019-04-03T16:11:02.738Z,99817.06
2019-04-03T16:13:31.252Z,99809.49
2019-04-03T16:16:01.548Z,99811.02
2019-04-03T16:18:29.937Z,99806.69
2019-04-03T16:20:58.393Z,99819.61
2019-04-03T16:23:27.248Z,99812.00
2019-04-03T16:25:55.720Z,99808.40
2019-04-03T16:28:24.164Z,99815.55
2019-04-03T16:30:53.966Z,99810.06
2019-04-03T16:33:24.637Z,99816.93
2019-04-03T16:35:53.862Z,99816.38
2019-04-03T16:38:22.890Z,99821.59
2019-04-03T16:40:51.406Z,99819.39
2019-04-03T16:43:22.153Z,99812.55
2019-04-03T16:45:51.310Z,99815.55
2019-04-03T16:48:19.857Z,99816.05
2019-04-03T16:50:48.592Z,99811.86
2019-04-03T16:53:19.283Z,99817.22
2019-04-03T16:55:47.622Z,99817.70
2019-04-03T16:58:16.109Z,99820.98
2019-04-03T17:00:44.631Z,99741.20
2019-04-03T17:03:13.438Z,99821.75
2019-04-03T17:05:43.694Z,99829.67
2019-04-03T17:08:12.325Z,99830.04
2019-04-03T17:10:41.203Z,99820.66
2019-04-03T17:13:09.727Z,99820.80
2019-04-03T17:15:38.176Z,99820.31
2019-04-03T17:18:06.633Z,99823.58
2019-04-03T17:20:35.588Z,99820.39
2019-04-03T17:23:04.224Z,99820.20
2019-04-03T17:25:43.943Z,99820.22
2019-04-03T17:28:07.996Z,99825.25
2019-04-03T17:30:33.220Z,99823.44
2019-04-03T17:33:02.916Z,99827.42
2019-04-03T17:35:31.825Z,99829.19
2019-04-03T17:38:00.934Z,99825.52
2019-04-03T17:40:30.097Z,99819.19
2019-04-03T17:42:58.878Z,99828.03
2019-04-03T17:45:27.441Z,99828.68
2019-04-03T17:47:55.905Z,99837.98
2019-04-03T17:50:24.389Z,99843.48
2019-04-03T17:52:52.869Z,99839.75
2019-04-03T17:55:21.346Z,99849.13
2019-04-03T17:57:49.815Z,99858.59
2019-04-03T18:00:20.944Z,99851.45
2019-04-03T18:02:49.424Z,99857.80
2019-04-03T18:05:17.901Z,99850.84
2019-04-03T18:07:46.354Z,99846.42
2019-04-03T18:10:14.825Z,99849.66
2019-04-03T18:12:45.665Z,99854.39
2019-04-03T18:15:13.745Z,99859.66
2019-04-03T18:17:42.223Z,99864.77
2019-04-03T18:20:13.318Z,99860.03
2019-04-03T18:22:41.327Z,99862.63
2019-04-03T18:25:10.193Z,99853.10
2019-04-03T18:27:38.995Z,99854.53
2019-04-03T18:30:11.168Z,99856.10
2019-04-03T18:32:37.653Z,99848.50
2019-04-03T18:35:07.238Z,99849.86
2019-04-03T18:37:36.006Z,99833.98
2019-04-03T18:40:05.131Z,99835.04
2019-04-03T18:42:33.608Z,99829.50
2019-04-03T18:45:02.072Z,99838.91
2019-04-03T18:47:40.509Z,99843.70
2019-04-03T18:50:03.539Z,99846.35
2019-04-03T18:52:31.548Z,99844.92
2019-04-03T18:55:00.018Z,99850.00
2019-04-03T18:57:28.474Z,99846.16
2019-04-03T19:00:00.386Z,99846.63
2019-04-03T19:02:27.127Z,99848.23
2019-04-03T19:05:01.694Z,99845.90
2019-04-03T19:07:25.804Z,99840.85
2019-04-03T19:10:06.021Z,99835.24
2019-04-03T19:12:34.905Z,99835.56
2019-04-03T19:14:54.922Z,99844.11
2019-04-03T19:17:24.825Z,99842.48
2019-04-03T19:20:04.001Z,99842.75
2019-04-03T19:22:25.617Z,99835.36
2019-04-03T19:24:53.948Z,99832.08
2019-04-03T19:27:22.435Z,99831.03
2019-04-03T19:29:50.927Z,99832.28
2019-04-03T19:32:19.458Z,99822.33
2019-04-03T19:34:48.281Z,99811.75
2019-04-03T19:37:16.725Z,99818.95
2019-04-03T19:39:45.249Z,99813.95
2019-04-03T19:42:14.076Z,99804.67
2019-04-03T19:44:42.560Z,99799.03
2019-04-03T19:47:11.276Z,99784.40
2019-04-03T19:49:40.296Z,99760.28
2019-04-03T19:52:08.959Z,99757.55
2019-04-03T19:54:37.409Z,99759.83
2019-04-03T19:57:05.901Z,99749.27
2019-04-03T19:59:34.746Z,99748.22
2019-04-03T20:02:03.242Z,99749.86
2019-04-03T20:04:31.698Z,99755.30
2019-04-03T20:07:00.206Z,99758.78
2019-04-03T20:09:31.877Z,99766.93
2019-04-03T20:11:59.174Z,99764.91
2019-04-03T20:14:27.645Z,99762.61
2019-04-03T20:16:58.448Z,99765.70
2019-04-03T20:19:27.210Z,99757.77
2019-04-03T20:21:55.813Z,99744.42
2019-04-03T20:24:25.257Z,99737.34
2019-04-03T20:26:53.876Z,99733.41
2019-04-03T20:29:22.362Z,99734.11
2019-04-03T20:31:50.855Z,99721.05
2019-04-03T20:34:19.374Z,99723.77
2019-04-03T20:36:50.951Z,99724.39
2019-04-03T20:39:18.057Z,99712.62
2019-04-03T20:41:46.534Z,99711.02
2019-04-03T20:44:16.932Z,99707.05
2019-04-03T20:46:45.183Z,99694.92
2019-04-03T20:49:13.672Z,99683.30
2019-04-03T20:51:42.166Z,99684.66
2019-04-03T20:54:11.930Z,99684.06
2019-04-03T20:56:40.477Z,99677.73
2019-04-03T20:59:11.238Z,99686.56
2019-04-03T21:01:39.188Z,99688.09
2019-04-03T21:04:07.641Z,99700.00
2019-04-03T21:06:37.517Z,99707.02
2019-04-03T21:09:06.839Z,99694.56
2019-04-03T21:11:35.299Z,99681.83
2019-04-03T21:14:05.636Z,99689.66
2019-04-03T21:16:34.265Z,99694.56
2019-04-03T21:19:02.750Z,99682.66
2019-04-03T21:21:31.506Z,99665.61
2019-04-03T21:23:59.992Z,99677.83
2019-04-03T21:26:28.461Z,99682.66
2019-04-03T21:28:56.950Z,99686.42
2019-04-03T21:31:26.520Z,99683.19
2019-04-03T21:33:55.043Z,99674.73
2019-04-03T21:36:23.581Z,99678.28
2019-04-03T21:38:52.073Z,99668.25
2019-04-03T21:41:21.299Z,99662.30
2019-04-03T21:43:50.176Z,99645.11
2019-04-03T21:46:18.681Z,99643.99
2019-04-03T21:48:47.161Z,99657.25
2019-04-03T21:51:15.617Z,99662.16
2019-04-03T21:53:44.089Z,99649.18
2019-04-03T21:56:12.547Z,99638.01
2019-04-03T21:58:40.998Z,99639.85
2019-04-03T22:01:18.769Z,99645.48
2019-04-03T22:03:50.495Z,99640.89
2019-04-03T22:06:17.971Z,99633.27
2019-04-03T22:08:46.451Z,99624.19
2019-04-03T22:11:14.940Z,99612.42
2019-04-03T22:13:43.482Z,99606.92
2019-04-03T22:16:11.977Z,99611.34
2019-04-03T22:18:40.442Z,99607.06
2019-04-03T22:21:09.175Z,99600.28
2019-04-03T22:23:37.651Z,99589.11
2019-04-03T22:26:06.131Z,99581.28
2019-04-03T22:28:34.598Z,99582.05
2019-04-03T22:31:03.088Z,99570.36
2019-04-03T22:33:31.568Z,99565.77
2019-04-03T22:36:01.284Z,99569.21
2019-04-03T22:38:30.329Z,99573.00
2019-04-03T22:40:58.818Z,99577.98
2019-04-03T22:43:27.856Z,99575.54
2019-04-03T22:45:56.342Z,99564.47
2019-04-03T22:48:26.766Z,99550.07
2019-04-03T22:50:55.362Z,99538.97
2019-04-03T22:53:23.829Z,99542.52
2019-04-03T22:55:52.314Z,99535.27
2019-04-03T22:58:21.546Z,99538.52
2019-04-03T23:00:50.136Z,99526.05
2019-04-03T23:03:18.731Z,99520.80
2019-04-03T23:05:48.073Z,99516.01
2019-04-03T23:08:17.169Z,99506.97
2019-04-03T23:10:45.627Z,99500.25
2019-04-03T23:13:14.092Z,99497.05
2019-04-03T23:15:42.594Z,99499.28
2019-04-03T23:18:11.318Z,99501.06
2019-04-03T23:20:40.101Z,99502.48
2019-04-03T23:23:08.584Z,99500.18
2019-04-03T23:25:37.383Z,99487.58
2019-04-03T23:28:05.893Z,99493.84
2019-04-03T23:30:34.437Z,99501.02
2019-04-03T23:33:02.901Z,99492.35
2019-04-03T23:35:31.351Z,99521.93
2019-04-03T23:37:59.890Z,99607.92
2019-04-03T23:40:28.365Z,99639.67
2019-04-03T23:42:56.837Z,99639.95
2019-04-03T23:45:27.690Z,99639.59
2019-04-03T23:47:56.165Z,99716.10
2019-04-03T23:50:24.657Z,99685.12
2019-04-03T23:52:53.152Z,99698.07
2019-04-03T23:55:21.620Z,99699.19
2019-04-03T23:57:50.069Z,99716.20
